Time;durP1;ratioP1;P1;durP2;ratioP2;P2;SDS_P1;SDS_P2;PMS_P1;PMS_P2;Temp;Humidity;BMP_temperature;BMP_pressure;BME280_temperature;BME280_humidity;BME280_pressure;Samples;Min_cycle;Max_cycle;Signal;HPM_P1;HPM_P2
2022/05/07 00:00:13;;;;;;;20.73;14.35;;;;;;;11.38;68.91;99714.00;5223016;28;20053;-69
2022/05/07 00:03:04;;;;;;;18.95;13.55;;;;;;;11.48;67.48;99713.09;5221255;28;20515;-69
2022/05/07 00:05:54;;;;;;;20.38;13.73;;;;;;;11.17;68.24;99714.88;5222919;28;20071;-69
2022/05/07 00:08:44;;;;;;;19.40;14.10;;;;;;;11.15;68.66;99700.03;5223104;28;20075;-69
2022/05/07 00:11:34;;;;;;;23.27;14.00;;;;;;;11.19;67.71;99707.63;5206495;28;20091;-69
2022/05/07 00:14:25;;;;;;;20.35;13.40;;;;;;;10.90;67.85;99696.81;5221500;28;20102;-68
2022/05/07 00:20:25;;;;;;;21.60;13.25;;;;;;;10.76;68.36;99700.63;5222373;28;20335;-69
2022/05/07 00:23:15;;;;;;;19.70;13.38;;;;;;;10.69;67.70;99707.38;5222727;28;20522;-69
2022/05/07 00:26:05;;;;;;;22.17;12.95;;;;;;;10.67;68.14;99695.25;5222616;28;20123;-69
2022/05/07 00:28:55;;;;;;;19.40;13.20;;;;;;;10.92;68.70;99705.47;5201818;28;20519;-69
2022/05/07 00:31:45;;;;;;;26.30;13.48;;;;;;;10.84;68.58;99705.28;5213509;28;20511;-69
2022/05/07 00:34:36;;;;;;;23.02;13.25;;;;;;;10.80;69.23;99703.88;5222399;28;20198;-69
2022/05/07 00:37:26;;;;;;;20.02;12.90;;;;;;;10.61;69.23;99699.25;5221221;28;20041;-69
2022/05/07 00:40:16;;;;;;;21.85;12.65;;;;;;;10.67;69.27;99690.78;5222712;28;20118;-69
2022/05/07 00:43:06;;;;;;;21.75;14.25;;;;;;;10.79;69.13;99702.16;5222627;28;20515;-69
2022/05/07 00:45:56;;;;;;;22.20;13.07;;;;;;;10.69;68.98;99690.63;5220988;28;20510;-69
2022/05/07 00:48:46;;;;;;;17.98;12.38;;;;;;;10.66;68.89;99690.88;5222528;28;20072;-69
2022/05/07 00:51:38;;;;;;;19.73;12.30;;;;;;;10.45;68.97;99704.13;5207118;28;20175;-69
2022/05/07 00:54:27;;;;;;;21.65;12.38;;;;;;;10.37;68.87;99683.53;5227356;28;20059;-69
2022/05/07 00:57:18;;;;;;;20.52;12.82;;;;;;;10.59;69.21;99698.50;5226482;28;20136;-69
2022/05/07 01:00:09;;;;;;;17.80;12.65;;;;;;;10.53;69.14;99676.00;5225215;28;20510;-69
2022/05/07 01:03:01;;;;;;;20.55;13.45;;;;;;;10.48;69.19;99674.69;5225098;28;20115;-69
2022/05/07 01:05:53;;;;;;;23.05;14.15;;;;;;;10.57;69.41;99690.69;5222322;28;20298;-69
2022/05/07 01:08:46;;;;;;;24.10;13.20;;;;;;;10.38;69.03;99685.22;5211668;28;20052;-69
2022/05/07 01:11:40;;;;;;;18.27;12.15;;;;;;;10.26;68.90;99681.75;5208364;28;20421;-69
2022/05/07 01:14:30;;;;;;;16.85;11.85;;;;;;;10.09;68.24;99663.69;5224630;28;20439;-69
2022/05/07 01:17:20;;;;;;;20.77;12.90;;;;;;;10.26;69.15;99683.56;5225108;28;20103;-69
2022/05/07 01:20:12;;;;;;;18.48;12.43;;;;;;;10.35;68.68;99683.66;5224826;28;20122;-69
2022/05/07 01:23:02;;;;;;;20.38;13.00;;;;;;;10.16;69.04;99664.88;5224812;28;20059;-69
2022/05/07 01:25:57;;;;;;;19.60;13.43;;;;;;;10.06;68.87;99669.25;5224517;28;20053;-69
2022/05/07 01:28:50;;;;;;;17.13;12.10;;;;;;;9.94;68.44;99670.25;5225055;28;20106;-69
2022/05/07 01:31:41;;;;;;;16.98;12.73;;;;;;;10.11;69.53;99678.50;5224178;28;20178;-69
2022/05/07 01:34:31;;;;;;;23.38;13.30;;;;;;;10.14;69.22;99669.47;5225279;28;20576;-69
2022/05/07 01:37:22;;;;;;;23.27;14.50;;;;;;;10.04;68.90;99671.19;5224444;28;20053;-68
2022/05/07 01:40:12;;;;;;;22.90;13.38;;;;;;;9.89;69.54;99676.75;5225925;28;20041;-69
2022/05/07 01:43:05;;;;;;;21.00;13.63;;;;;;;10.02;69.78;99663.34;5204057;28;20056;-68
2022/05/07 01:45:56;;;;;;;19.08;12.82;;;;;;;10.06;69.54;99680.69;5224189;28;20283;-69
2022/05/07 01:48:46;;;;;;;20.35;13.05;;;;;;;9.89;69.36;99686.50;5225423;28;20337;-69
2022/05/07 01:51:37;;;;;;;18.50;12.30;;;;;;;9.75;69.16;99678.81;5209903;28;20052;-69
2022/05/07 01:54:27;;;;;;;16.98;11.70;;;;;;;9.57;70.50;99689.03;5212286;28;20145;-69
2022/05/07 01:57:17;;;;;;;17.85;12.18;;;;;;;9.76;69.16;99693.72;5224700;28;20064;-69
2022/05/07 02:00:11;;;;;;;21.83;13.30;;;;;;;9.65;69.32;99676.88;5221595;28;20056;-68
2022/05/07 02:03:01;;;;;;;17.60;12.20;;;;;;;9.59;69.79;99693.25;5223569;28;20064;-68
2022/05/07 02:05:53;;;;;;;19.92;13.18;;;;;;;9.56;69.26;99684.72;5223215;28;20055;-69
2022/05/07 02:08:45;;;;;;;20.75;12.57;;;;;;;9.41;69.39;99660.31;5210347;28;20178;-68
2022/05/07 02:11:41;;;;;;;21.67;12.43;;;;;;;9.41;69.87;99674.38;5223300;28;20049;-68
2022/05/07 02:14:32;;;;;;;20.75;12.88;;;;;;;9.54;69.80;99676.91;5223532;28;20457;-69
2022/05/07 02:17:23;;;;;;;19.75;12.63;;;;;;;9.46;68.75;99691.69;5223416;28;20056;-69
2022/05/07 02:20:13;;;;;;;18.55;11.77;;;;;;;9.37;68.40;99687.94;5207057;28;20063;-68
2022/05/07 02:23:03;;;;;;;19.88;11.70;;;;;;;9.38;67.80;99693.13;5223555;28;20103;-68
2022/05/07 02:25:54;;;;;;;18.42;11.18;;;;;;;9.38;68.38;99687.00;5223019;28;20194;-69
2022/05/07 02:28:44;;;;;;;15.02;11.05;;;;;;;9.18;69.00;99662.94;5222498;28;20123;-69
2022/05/07 02:31:35;;;;;;;20.55;12.82;;;;;;;9.53;69.17;99695.53;5223157;28;20500;-68
2022/05/07 02:34:25;;;;;;;23.55;13.90;;;;;;;9.59;69.53;99692.41;5223248;28;20419;-69
2022/05/07 02:37:16;;;;;;;21.55;13.32;;;;;;;9.29;70.63;99672.66;5223138;28;20518;-69
2022/05/07 02:40:11;;;;;;;19.70;12.43;;;;;;;9.33;70.41;99695.28;5223476;28;20084;-69
2022/05/07 02:43:02;;;;;;;20.30;12.90;;;;;;;9.21;70.18;99690.97;5224469;28;20099;-69
2022/05/07 02:45:53;;;;;;;19.40;13.73;;;;;;;9.36;70.14;99689.75;5222889;28;20063;-69
2022/05/07 02:48:45;;;;;;;21.48;12.90;;;;;;;9.38;70.23;99697.59;5202025;28;20061;-69
2022/05/07 02:51:37;;;;;;;18.00;12.68;;;;;;;9.26;70.32;99695.88;5222677;28;20051;-68
2022/05/07 02:54:27;;;;;;;15.65;11.73;;;;;;;9.23;69.91;99678.44;5222507;28;20053;-69
2022/05/07 02:57:17;;;;;;;20.65;11.68;;;;;;;9.27;70.04;99697.56;5222865;28;20124;-69
2022/05/07 03:00:09;;;;;;;16.20;10.93;;;;;;;8.98;69.18;99676.00;5222948;28;20503;-68
2022/05/07 03:03:00;;;;;;;15.98;11.13;;;;;;;9.02;69.25;99701.25;5223471;28;20503;-68
2022/05/07 03:05:54;;;;;;;15.43;10.90;;;;;;;9.06;69.15;99685.03;5221868;28;20053;-69
2022/05/07 03:08:45;;;;;;;16.98;11.23;;;;;;;9.11;70.08;99689.97;5222819;28;20060;-69
2022/05/07 03:11:36;;;;;;;15.77;11.40;;;;;;;9.06;68.98;99678.91;5222463;28;20088;-68
2022/05/07 03:14:26;;;;;;;17.10;11.50;;;;;;;9.15;69.68;99689.63;5207733;28;20059;-69
2022/05/07 03:17:17;;;;;;;14.45;10.88;;;;;;;8.98;70.14;99682.13;5223383;28;20422;-69
2022/05/07 03:20:11;;;;;;;24.23;12.20;;;;;;;9.01;69.86;99676.63;5222380;28;20522;-69
2022/05/07 03:23:04;;;;;;;17.88;12.02;;;;;;;9.14;70.19;99693.22;5222274;28;20071;-68
2022/05/07 03:25:55;;;;;;;21.35;11.73;;;;;;;8.93;70.31;99671.88;5222423;28;20653;-69
2022/05/07 03:28:45;;;;;;;16.33;11.30;;;;;;;8.97;70.52;99685.72;5222530;28;20573;-68
2022/05/07 03:31:39;;;;;;;18.42;11.63;;;;;;;8.80;69.72;99684.34;5208426;28;20507;-69
2022/05/07 03:34:30;;;;;;;17.60;11.00;;;;;;;8.86;70.22;99691.00;5214420;28;20053;-68
2022/05/07 03:37:21;;;;;;;17.27;11.13;;;;;;;8.83;69.28;99693.88;5209100;28;20051;-69
2022/05/07 03:40:11;;;;;;;18.17;10.68;;;;;;;8.74;69.77;99670.75;5222067;28;20056;-69
2022/05/07 03:43:03;;;;;;;18.95;11.43;;;;;;;8.78;70.13;99666.94;5221932;28;20442;-68
2022/05/07 03:45:53;;;;;;;17.58;11.77;;;;;;;8.69;70.68;99674.59;5207759;28;20130;-68
2022/05/07 03:48:45;;;;;;;17.83;11.40;;;;;;;8.77;69.76;99683.75;5208267;28;20518;-69
2022/05/07 03:54:49;;;;;;;16.10;10.57;;;;;;;8.67;70.25;99678.31;5221598;28;20055;-69
2022/05/07 03:57:40;;;;;;;23.73;11.43;;;;;;;8.71;70.37;99690.34;5201285;28;20526;-69
2022/05/07 04:00:30;;;;;;;17.92;11.10;;;;;;;8.66;70.20;99698.63;5207842;28;20076;-68
2022/05/07 04:03:21;;;;;;;17.15;11.35;;;;;;;8.62;70.53;99676.00;5221331;28;20056;-69
2022/05/07 04:06:16;;;;;;;20.08;11.15;;;;;;;8.68;70.42;99696.72;5221673;28;20045;-68
2022/05/07 04:09:08;;;;;;;15.65;11.35;;;;;;;8.63;70.59;99692.72;5221678;28;20060;-69
2022/05/07 04:11:59;;;;;;;17.52;10.98;;;;;;;8.64;70.07;99695.25;5221199;28;20057;-68
2022/05/07 04:14:50;;;;;;;23.67;11.27;;;;;;;8.64;69.50;99694.38;5207157;28;20060;-68
2022/05/07 04:17:43;;;;;;;19.15;11.10;;;;;;;8.58;68.99;99689.59;5221300;28;20088;-68
2022/05/07 04:20:34;;;;;;;18.00;11.48;;;;;;;8.50;69.16;99687.50;5208036;28;20052;-68
2022/05/07 04:23:30;;;;;;;27.40;14.88;;;;;;;8.70;70.86;99692.13;5213958;28;20052;-69
2022/05/07 04:26:20;;;;;;;28.60;15.95;;;;;;;8.98;71.85;99710.41;5203349;28;20053;-69
2022/05/07 04:29:16;;;;;;;23.38;15.13;;;;;;;9.03;71.78;99714.34;5225868;28;20049;-68
2022/05/07 04:32:10;;;;;;;27.17;14.95;;;;;;;8.99;71.66;99709.44;5216364;28;20400;-69
2022/05/07 04:35:02;;;;;;;22.63;13.88;;;;;;;9.03;71.41;99700.28;5212098;28;20052;-69
2022/05/07 04:37:56;;;;;;;22.58;14.02;;;;;;;9.09;70.80;99705.13;5225333;28;20064;-68
2022/05/07 04:40:46;;;;;;;27.58;14.38;;;;;;;9.01;71.21;99702.22;5225418;28;20074;-69
2022/05/07 04:43:41;;;;;;;;;;;;;;;8.98;70.91;99708.59;5225745;28;20538;-69
2022/05/07 04:46:37;;;;;;;21.20;13.88;;;;;;;8.96;71.53;99707.00;5225165;28;19927;-67
2022/05/07 04:49:32;;;;;;;24.98;13.75;;;;;;;9.00;71.76;99717.22;5212084;28;20048;-67
2022/05/07 04:52:23;;;;;;;24.02;14.68;;;;;;;9.00;69.95;99722.53;5208515;28;20052;-68
2022/05/07 04:55:14;;;;;;;25.95;14.10;;;;;;;9.04;70.10;99718.72;5214304;28;20049;-68
2022/05/07 04:58:06;;;;;;;19.20;13.25;;;;;;;9.00;70.25;99713.75;5214582;28;20057;-68
2022/05/07 05:01:00;;;;;;;22.30;14.30;;;;;;;9.04;72.07;99717.84;5215695;28;20422;-68
2022/05/07 05:03:51;;;;;;;27.83;15.70;;;;;;;9.31;71.93;99725.50;5219013;28;20049;-67
2022/05/07 05:06:47;;;;;;;34.10;16.65;;;;;;;9.07;72.04;99705.25;5215572;28;20068;-68
2022/05/07 05:09:41;;;;;;;33.25;16.15;;;;;;;9.14;73.05;99716.22;5215984;28;20470;-68
2022/05/07 05:12:37;;;;;;;24.48;16.13;;;;;;;9.17;72.90;99729.16;5216420;28;20120;-67
2022/05/07 05:15:28;;;;;;;25.77;16.77;;;;;;;9.35;71.77;99719.84;5215840;28;20115;-68
2022/05/07 05:18:24;;;;;;;24.70;15.77;;;;;;;9.52;71.92;99733.56;5219068;28;20052;-67
2022/05/07 05:21:16;;;;;;;21.35;14.45;;;;;;;9.47;71.72;99730.44;5200646;28;20120;-68
2022/05/07 05:24:28;;;;;;;27.75;16.35;;;;;;;9.75;71.88;99724.69;5217263;28;20544;-68
2022/05/07 05:27:19;;;;;;;24.90;15.85;;;;;;;9.68;72.45;99728.78;5217529;28;20060;-68
2022/05/07 05:30:12;;;;;;;25.07;16.40;;;;;;;9.80;71.94;99733.13;5216965;28;20045;-68
2022/05/07 05:33:02;;;;;;;25.73;16.75;;;;;;;9.94;72.01;99729.38;5201988;28;20064;-68
2022/05/07 05:35:54;;;;;;;27.90;16.08;;;;;;;10.00;71.87;99733.31;5198912;28;20055;-68
2022/05/07 05:38:48;;;;;;;31.25;16.88;;;;;;;9.99;72.09;99721.88;5215212;28;20044;-68
2022/05/07 05:41:44;;;;;;;27.15;18.00;;;;;;;9.99;71.25;99708.63;5214841;28;21081;-68
2022/05/07 05:44:37;;;;;;;27.98;17.60;;;;;;;10.27;72.09;99733.81;5216499;28;20057;-68
2022/05/07 05:47:29;;;;;;;34.45;20.23;;;;;;;10.18;72.94;99720.44;5210863;28;20060;-68
2022/05/07 05:50:19;;;;;;;27.17;18.58;;;;;;;10.48;72.00;99748.94;5209549;28;20052;-68
2022/05/07 05:53:09;;;;;;;32.15;17.35;;;;;;;10.54;71.37;99746.63;5220371;28;20506;-70
2022/05/07 05:56:04;;;;;;;30.70;20.27;;;;;;;10.70;72.11;99750.69;5221817;28;20436;-69
2022/05/07 05:59:01;;;;;;;29.73;20.23;;;;;;;10.77;71.84;99736.78;5208627;28;20044;-68
2022/05/07 06:01:57;;;;;;;32.97;20.40;;;;;;;10.95;71.50;99750.31;5214649;28;20077;-68
2022/05/07 06:04:53;;;;;;;33.25;21.65;;;;;;;10.92;71.87;99755.03;5213773;28;20491;-68
2022/05/07 06:07:47;;;;;;;;;;;;;;;11.21;71.67;99753.44;5224247;28;20134;-69
2022/05/07 06:10:38;;;;;;;34.88;23.77;;;;;;;11.36;71.29;99740.72;5223973;28;20422;-68
2022/05/07 06:13:33;;;;;;;;;;;;;;;11.46;71.12;99748.75;5209585;28;20118;-68
2022/05/07 06:16:24;;;;;;;40.25;25.58;;;;;;;11.59;70.38;99727.25;5224836;28;20021;-68
2022/05/07 06:19:15;;;;;;;36.20;26.00;;;;;;;11.80;70.59;99751.97;5214656;28;20568;-69
2022/05/07 06:22:13;;;;;;;38.70;26.90;;;;;;;11.95;70.55;99741.84;5202118;28;20045;-69
2022/05/07 06:28:22;;;;;;;40.53;24.93;;;;;;;12.17;70.16;99731.00;5216014;28;20186;-69
2022/05/07 06:31:13;;;;;;;39.90;23.40;;;;;;;12.16;68.98;99752.44;5223477;28;20429;-72
2022/05/07 06:34:07;;;;;;;32.75;21.25;;;;;;;12.40;67.16;99744.09;5223693;28;20045;-72
2022/05/07 06:37:01;;;;;;;37.13;21.05;;;;;;;12.68;66.50;99753.94;5223503;28;20107;-72
2022/05/07 06:39:54;;;;;;;34.58;20.77;;;;;;;12.59;67.83;99759.25;5218784;28;20048;-71
2022/05/07 06:42:45;;;;;;;30.60;20.67;;;;;;;12.77;66.48;99744.25;5221257;28;20182;-70
2022/05/07 06:45:43;;;;;;;26.58;18.20;;;;;;;12.97;66.15;99754.91;5223372;28;20060;-70
2022/05/07 06:48:34;;;;;;;27.02;18.20;;;;;;;13.12;65.65;99748.19;5223352;28;20628;-71
2022/05/07 06:51:32;;;;;;;28.10;18.15;;;;;;;13.48;65.04;99748.44;5208261;28;20426;-71
2022/05/07 06:54:22;;;;;;;33.55;17.55;;;;;;;13.93;62.75;99759.22;5224009;28;20431;-72
2022/05/07 06:57:12;;;;;;;27.13;18.40;;;;;;;13.44;64.23;99737.22;5223895;28;20076;-72
2022/05/07 07:00:02;;;;;;;23.60;17.45;;;;;;;13.58;64.28;99755.44;5223520;28;20063;-70
2022/05/07 07:02:53;;;;;;;24.30;16.85;;;;;;;13.53;64.60;99727.53;5223471;28;20049;-71
2022/05/07 07:05:43;;;;;;;30.23;17.17;;;;;;;13.77;63.89;99737.69;5223385;28;20081;-73
2022/05/07 07:08:35;;;;;;;25.10;16.98;;;;;;;14.17;64.20;99752.50;5223269;28;20056;-72
2022/05/07 07:11:27;;;;;;;24.85;17.10;;;;;;;14.65;62.28;99760.25;5213792;28;20127;-71
2022/05/07 07:14:17;;;;;;;27.13;17.92;;;;;;;14.36;63.88;99763.09;5219105;28;20536;-71
2022/05/07 07:17:07;;;;;;;26.95;17.23;;;;;;;14.63;62.29;99740.06;5215345;28;20095;-72
2022/05/07 07:19:57;;;;;;;27.52;17.40;;;;;;;15.40;60.84;99755.41;5215324;28;20423;-71
2022/05/07 07:22:48;;;;;;;24.92;16.60;;;;;;;16.04;59.02;99750.63;5216322;28;20099;-71
2022/05/07 07:25:40;;;;;;;27.52;16.85;;;;;;;17.04;57.31;99748.06;5208227;28;20049;-73
2022/05/07 07:28:31;;;;;;;24.92;16.30;;;;;;;18.21;55.02;99750.22;5218275;28;20512;-73
2022/05/07 07:31:21;;;;;;;23.52;14.57;;;;;;;18.81;51.88;99750.56;5205490;28;20138;-69
2022/05/07 07:34:11;;;;;;;21.50;14.55;;;;;;;18.67;51.98;99739.53;5214722;28;20051;-69
2022/05/07 07:37:02;;;;;;;20.80;13.60;;;;;;;18.84;51.66;99744.81;5213235;28;20064;-72
2022/05/07 07:39:52;;;;;;;21.42;13.93;;;;;;;19.18;52.22;99752.47;5217714;28;20047;-73
2022/05/07 07:42:42;;;;;;;22.77;13.75;;;;;;;19.61;49.79;99747.38;5210554;28;20060;-71
2022/05/07 07:48:42;;;;;;;23.40;14.35;;;;;;;20.88;49.42;99740.72;5222093;28;20076;-72
2022/05/07 07:51:33;;;;;;;19.10;13.23;;;;;;;21.41;44.66;99736.88;5222958;28;20049;-71
2022/05/07 07:54:32;;;;;;;19.48;12.32;;;;;;;21.82;44.29;99734.25;5220267;28;20052;-71
2022/05/07 07:57:22;;;;;;;16.92;12.75;;;;;;;22.42;42.92;99738.09;5221001;28;20064;-72
2022/05/07 08:00:17;;;;;;;20.92;12.75;;;;;;;21.10;46.21;99722.69;5207941;28;20086;-71
2022/05/07 08:03:12;;;;;;;15.98;11.95;;;;;;;21.59;44.98;99729.13;5222883;28;20546;-72
2022/05/07 08:06:02;;;;;;;19.75;12.07;;;;;;;22.92;43.82;99735.09;5222947;28;20102;-72
2022/05/07 08:12:01;;;;;;;16.83;11.88;;;;;;;23.30;40.56;99729.09;5212497;28;20107;-74
2022/05/07 08:14:51;;;;;;;16.90;11.40;;;;;;;23.10;40.38;99734.50;5215079;28;20059;-71
2022/05/07 08:17:41;;;;;;;16.77;11.70;;;;;;;23.52;39.38;99730.56;5204000;28;20060;-72
2022/05/07 08:20:31;;;;;;;19.48;11.43;;;;;;;23.83;39.94;99734.47;5219376;28;20056;-72
2022/05/07 08:23:23;;;;;;;17.48;11.73;;;;;;;23.93;41.41;99718.63;5207121;28;20676;-72
2022/05/07 08:26:13;;;;;;;16.63;11.63;;;;;;;24.71;37.92;99710.38;5219575;28;20064;-71
2022/05/07 08:29:03;;;;;;;17.48;11.73;;;;;;;23.83;40.00;99719.06;5214914;28;20049;-72
2022/05/07 08:31:53;;;;;;;17.20;11.02;;;;;;;23.65;38.54;99717.00;5219282;28;20750;-72
2022/05/07 08:34:44;;;;;;;18.48;11.80;;;;;;;23.72;41.08;99722.44;5216993;28;20063;-72
2022/05/07 08:37:34;;;;;;;14.10;11.00;;;;;;;24.31;39.12;99718.69;5221775;28;20056;-73
2022/05/07 08:40:29;;;;;;;17.75;11.75;;;;;;;24.84;38.56;99721.13;5221734;28;20509;-72
2022/05/07 08:43:20;;;;;;;15.75;10.32;;;;;;;24.75;37.77;99716.19;5221870;28;20113;-72
2022/05/07 08:46:14;;;;;;;17.67;9.90;;;;;;;23.87;39.34;99716.75;5221361;28;20118;-72
2022/05/07 08:49:05;;;;;;;15.15;10.65;;;;;;;25.02;39.96;99711.41;5222043;28;20056;-73
2022/05/07 08:51:56;;;;;;;18.92;10.82;;;;;;;25.28;39.84;99700.38;5222428;28;20057;-72
2022/05/07 08:54:46;;;;;;;14.70;11.13;;;;;;;25.27;38.42;99704.13;5221753;28;20110;-73
2022/05/07 08:57:36;;;;;;;14.88;10.55;;;;;;;25.70;39.44;99705.19;5209174;28;20064;-70
2022/05/07 09:00:27;;;;;;;16.45;10.55;;;;;;;25.66;37.38;99712.97;5222526;28;20072;-73
2022/05/07 09:03:17;;;;;;;14.15;10.88;;;;;;;25.74;38.94;99709.94;5222180;28;20041;-73
2022/05/07 09:06:22;;;;;;;16.85;10.38;;;;;;;25.97;38.62;99703.88;5222471;28;20132;-72
2022/05/07 09:09:13;;;;;;;15.75;10.73;;;;;;;26.34;35.06;99703.00;5221507;28;20056;-72
2022/05/07 09:12:04;;;;;;;16.50;10.73;;;;;;;26.32;33.71;99673.31;5222396;28;20138;-71
2022/05/07 09:15:00;;;;;;;12.75;10.30;;;;;;;25.30;39.68;99689.31;5225367;28;20056;-72
2022/05/07 09:17:51;;;;;;;16.70;10.07;;;;;;;25.70;39.08;99705.19;5226071;28;20060;-72
2022/05/07 09:20:42;;;;;;;17.50;9.65;;;;;;;26.32;38.79;99683.34;5204928;28;20136;-73
2022/05/07 09:23:33;;;;;;;14.43;9.40;;;;;;;26.36;38.69;99679.97;5209967;28;20495;-72
2022/05/07 09:26:26;;;;;;;15.73;9.30;;;;;;;26.21;36.16;99691.22;5216265;28;20049;-70
2022/05/07 09:29:17;;;;;;;13.32;8.82;;;;;;;26.87;34.77;99696.81;5227593;28;20060;-71
2022/05/07 09:32:13;;;;;;;15.60;8.10;;;;;;;26.55;36.53;99691.63;5225659;28;20063;-71
2022/05/07 09:38:24;;;;;;;11.20;5.85;;;;;;;26.14;33.48;99666.03;5226115;28;20055;-72
2022/05/07 09:41:20;;;;;;;8.18;5.63;;;;;;;26.57;37.09;99643.28;5210625;28;20051;-72
2022/05/07 09:44:12;;;;;;;10.85;6.30;;;;;;;27.20;35.62;99676.44;5224808;28;20044;-72
2022/05/07 09:47:04;;;;;;;10.77;6.38;;;;;;;26.80;34.34;99647.94;5224223;28;20408;-71
2022/05/07 09:59:33;;;;;;;14.00;6.30;;;;;;;26.88;33.81;99671.25;5225654;28;19936;-73
2022/05/07 10:02:49;;;;;;;10.27;5.90;;;;;;;27.07;33.51;99653.78;5209322;28;20052;-72
2022/05/07 10:06:07;;;;;;;8.93;5.47;;;;;;;26.94;32.89;99637.69;5217583;28;20056;-72
2022/05/07 10:09:26;;;;;;;9.52;5.75;;;;;;;27.10;34.73;99656.03;5224453;28;20139;-71
2022/05/07 10:12:22;;;;;;;9.57;4.38;;;;;;;27.37;34.27;99631.91;5224175;28;20535;-73
2022/05/07 10:15:19;;;;;;;6.53;4.28;;;;;;;27.15;33.01;99590.00;5223867;28;20055;-71
2022/05/07 10:18:16;;;;;;;7.72;4.90;;;;;;;27.52;32.20;99650.50;5220342;28;20057;-74
2022/05/07 10:21:11;;;;;;;7.53;3.55;;;;;;;26.10;33.95;99604.22;5227579;28;20048;-73
2022/05/07 10:24:01;;;;;;;5.20;2.85;;;;;;;25.42;32.71;99627.75;5224828;28;20206;-69
2022/05/07 10:26:52;;;;;;;7.05;2.58;;;;;;;24.79;31.14;99641.47;5218346;28;20063;-74
2022/05/07 10:29:42;;;;;;;3.65;1.80;;;;;;;24.30;31.89;99616.75;5213683;28;20045;-75
2022/05/07 10:32:56;;;;;;;3.10;2.00;;;;;;;23.86;33.44;99636.56;5218752;28;20071;-73
2022/05/07 10:35:54;;;;;;;8.18;2.35;;;;;;;24.61;36.35;99643.06;5225621;28;20319;-74
2022/05/07 10:38:50;;;;;;;5.18;2.28;;;;;;;24.09;32.18;99622.50;5224415;28;20049;-75
2022/05/07 10:41:47;;;;;;;5.95;2.35;;;;;;;24.02;31.41;99609.00;5210908;28;20045;-75
2022/05/07 10:44:41;;;;;;;4.05;1.88;;;;;;;23.21;31.98;99575.13;5224166;28;20170;-73
2022/05/07 10:47:32;;;;;;;3.80;2.20;;;;;;;23.58;32.93;99624.16;5224116;28;20130;-72
2022/05/07 10:50:22;;;;;;;4.93;1.90;;;;;;;23.43;32.46;99597.31;5224887;28;20080;-72
2022/05/07 10:53:13;;;;;;;6.35;1.98;;;;;;;23.42;38.20;99638.13;5222446;28;20684;-72
2022/05/07 10:56:10;;;;;;;4.78;1.70;;;;;;;23.17;33.75;99613.59;5223523;28;20414;-75
2022/05/07 10:59:01;;;;;;;3.58;1.98;;;;;;;23.17;34.23;99635.25;5223716;28;20045;-72
2022/05/07 11:02:02;;;;;;;4.45;2.05;;;;;;;23.45;33.30;99625.00;5223451;28;20049;-73
2022/05/07 11:04:53;;;;;;;1.73;1.63;;;;;;;23.16;36.05;99601.97;5222593;28;20056;-72
2022/05/07 11:07:43;;;;;;;3.72;2.25;;;;;;;23.70;34.06;99610.78;5221560;28;20048;-71
2022/05/07 11:10:34;;;;;;;3.65;2.17;;;;;;;24.61;35.29;99607.81;5206754;28;20060;-74
2022/05/07 11:13:24;;;;;;;4.78;2.38;;;;;;;24.20;35.39;99616.38;5221245;28;20048;-73
2022/05/07 11:16:16;;;;;;;5.70;1.80;;;;;;;24.35;34.70;99605.25;5222228;28;20134;-74
2022/05/07 11:19:06;;;;;;;8.77;2.10;;;;;;;24.56;35.76;99596.78;5233175;28;20450;-73
2022/05/07 11:21:59;;;;;;;3.92;2.15;;;;;;;22.60;35.16;99604.25;5220462;28;20049;-74
2022/05/07 11:24:57;;;;;;;7.95;2.33;;;;;;;22.84;34.25;99610.91;5222924;28;20091;-72
2022/05/07 11:27:51;;;;;;;5.95;2.10;;;;;;;23.21;34.32;99599.47;5222944;28;20087;-71
2022/05/07 11:30:52;;;;;;;5.60;1.90;;;;;;;23.45;33.21;99605.25;5220270;28;20431;-71
2022/05/07 11:33:43;;;;;;;6.32;3.72;;;;;;;24.27;32.58;99594.66;5219067;28;20056;-73
2022/05/07 11:36:37;;;;;;;5.50;2.15;;;;;;;24.56;33.97;99593.25;5215388;28;20445;-71
2022/05/07 11:39:27;;;;;;;;;;;;;;;24.53;33.96;99596.41;5223662;28;20164;-72
2022/05/07 11:42:46;;;;;;;6.25;2.20;;;;;;;24.74;30.96;99595.22;5211116;28;19932;-72
2022/05/07 11:45:53;;;;;;;8.73;2.10;;;;;;;23.40;31.65;99573.38;5215408;28;20051;-73
2022/05/07 11:48:43;;;;;;;2.83;1.80;;;;;;;23.97;34.28;99576.28;5200584;28;20084;-74
2022/05/07 11:51:33;;;;;;;7.40;1.85;;;;;;;23.60;33.37;99578.72;5220182;28;20075;-74
2022/05/07 11:54:24;;;;;;;7.03;1.63;;;;;;;23.15;33.70;99580.53;5222725;28;20103;-74
2022/05/07 11:57:29;;;;;;;6.15;2.00;;;;;;;23.41;34.34;99580.47;5221441;28;20538;-73
2022/05/07 12:00:25;;;;;;;5.35;1.95;;;;;;;23.12;32.71;99567.44;5222849;28;20056;-74
2022/05/07 12:03:34;;;;;;;2.90;1.52;;;;;;;23.80;33.42;99575.13;5214162;28;20072;-73
2022/05/07 12:06:26;;;;;;;5.43;2.08;;;;;;;22.27;34.14;99569.91;5202692;28;20056;-72
2022/05/07 12:09:16;;;;;;;5.32;2.55;;;;;;;22.60;32.92;99555.59;5215288;28;20491;-73
2022/05/07 12:12:07;;;;;;;2.88;1.70;;;;;;;23.07;33.80;99556.41;5214771;28;20183;-73
2022/05/07 12:14:58;;;;;;;2.92;1.70;;;;;;;23.95;33.31;99573.00;5211275;28;20068;-74
2022/05/07 12:17:55;;;;;;;4.18;1.70;;;;;;;24.02;32.34;99559.41;5216328;28;20059;-73
2022/05/07 12:20:45;;;;;;;4.10;1.95;;;;;;;24.10;32.79;99557.25;5221007;28;20056;-73
2022/05/07 12:29:57;;;;;;;;;;;;;;;24.27;35.82;99554.88;5221182;28;20049;-74
2022/05/07 12:32:50;;;;;;;3.72;1.88;;;;;;;24.26;33.55;99517.16;5206921;28;19978;-73
2022/05/07 12:35:40;;;;;;;6.50;1.63;;;;;;;24.65;31.75;99539.59;5221083;28;20517;-74
2022/05/07 12:38:31;;;;;;;4.35;1.73;;;;;;;24.12;30.45;99524.53;5222296;28;20490;-73
2022/05/07 12:41:24;;;;;;;4.53;1.83;;;;;;;23.49;32.79;99521.75;5217645;28;20064;-73
2022/05/07 12:44:15;;;;;;;4.22;1.60;;;;;;;24.17;35.38;99516.56;5209053;28;20111;-73
2022/05/07 12:47:09;;;;;;;3.92;1.92;;;;;;;24.35;31.81;99541.03;5223171;28;20041;-75
2022/05/07 12:49:59;;;;;;;3.72;1.85;;;;;;;24.20;33.23;99532.38;5226159;28;20434;-74
2022/05/07 12:52:51;;;;;;;3.95;1.67;;;;;;;23.83;33.80;99534.91;5212011;28;20517;-73
2022/05/07 12:55:42;;;;;;;5.95;1.70;;;;;;;22.94;33.24;99530.22;5225652;28;20521;-73
2022/05/07 12:58:35;;;;;;;3.83;2.40;;;;;;;23.38;32.70;99539.50;5221089;28;20494;-74
2022/05/07 13:01:26;;;;;;;6.60;1.63;;;;;;;23.44;31.85;99460.97;5210668;28;20053;-73
2022/05/07 13:04:20;;;;;;;3.22;1.73;;;;;;;23.52;32.38;99515.91;5226721;28;20139;-74
2022/05/07 13:07:10;;;;;;;3.42;1.90;;;;;;;23.31;32.70;99498.94;5226731;28;20060;-75
2022/05/07 13:10:01;;;;;;;3.50;1.70;;;;;;;23.40;32.04;99523.84;5225645;28;20060;-71
2022/05/07 13:12:52;;;;;;;4.72;2.00;;;;;;;23.89;32.94;99527.81;5225092;28;20052;-73
2022/05/07 13:15:42;;;;;;;3.00;1.90;;;;;;;24.12;31.88;99521.84;5224808;28;20118;-74
2022/05/07 13:18:35;;;;;;;6.18;2.00;;;;;;;23.93;32.32;99510.06;5225590;28;20183;-74
2022/05/07 13:21:25;;;;;;;3.03;1.60;;;;;;;23.63;32.74;99488.13;5225086;28;20090;-74
2022/05/07 13:24:17;;;;;;;3.45;2.08;;;;;;;23.23;33.21;99506.44;5225096;28;20166;-74
2022/05/07 13:27:12;;;;;;;6.22;2.03;;;;;;;23.11;33.29;99490.03;5215714;28;20049;-73
2022/05/07 13:30:02;;;;;;;4.85;1.92;;;;;;;23.54;32.04;99490.28;5224430;28;20052;-75
2022/05/07 13:32:54;;;;;;;6.13;2.13;;;;;;;24.06;34.06;99487.50;5224721;28;20055;-73
2022/05/07 13:35:44;;;;;;;5.30;2.00;;;;;;;23.28;33.49;99506.59;5225090;28;20126;-73
2022/05/07 13:38:36;;;;;;;6.75;2.35;;;;;;;23.86;33.62;99487.63;5225055;28;20047;-72
2022/05/07 13:41:28;;;;;;;3.05;2.15;;;;;;;24.22;33.60;99486.13;5225358;28;20055;-72
2022/05/07 13:44:20;;;;;;;4.80;2.35;;;;;;;24.24;33.38;99481.28;5224251;28;20048;-72
2022/05/07 13:47:10;;;;;;;6.63;2.00;;;;;;;23.99;32.83;99481.28;5224485;28;20051;-70
2022/05/07 13:50:02;;;;;;;3.22;1.92;;;;;;;23.12;34.26;99494.41;5224503;28;20060;-73
2022/05/07 13:52:53;;;;;;;4.97;2.38;;;;;;;23.77;36.00;99497.03;5225367;28;20079;-72
2022/05/07 13:55:43;;;;;;;7.40;2.22;;;;;;;23.17;33.19;99483.75;5224139;28;20055;-72
2022/05/07 13:58:34;;;;;;;4.13;2.25;;;;;;;23.48;33.12;99487.59;5223445;28;20041;-74